sensor_id;sensor_type;location;lat;lon;timestamp;pressure;altitude;pressure_sealevel;temperature;humidity
57050;BME280;42935;50.966;16.992;2022-12-10T00:02:38;100522.55;;;0.29;100.00
57050;BME280;42935;50.966;16.992;2022-12-10T00:06:03;100511.76;;;0.21;100.00
57050;BME280;42935;50.966;16.992;2022-12-10T00:09:20;100518.71;;;0.30;100.00
57050;BME280;42935;50.966;16.992;2022-12-10T00:12:30;100504.13;;;0.22;100.00
57050;BME280;42935;50.966;16.992;2022-12-10T00:15:48;100505.53;;;0.26;100.00
57050;BME280;42935;50.966;16.992;2022-12-10T00:19:07;100512.27;;;0.29;100.00
57050;BME280;42935;50.966;16.992;2022-12-10T00:22:21;100518.29;;;0.27;100.00
57050;BME280;42935;50.966;16.992;2022-12-10T00:25:40;100494.66;;;0.17;100.00
57050;BME280;42935;50.966;16.992;2022-12-10T00:28:55;100514.59;;;0.28;100.00
57050;BME280;42935;50.966;16.992;2022-12-10T00:32:10;100508.28;;;0.23;100.00
57050;BME280;42935;50.966;16.992;2022-12-10T00:35:28;100499.69;;;0.27;100.00
57050;BME280;42935;50.966;16.992;2022-12-10T00:38:42;100481.47;;;0.25;100.00
57050;BME280;42935;50.966;16.992;2022-12-10T00:41:55;100499.74;;;0.28;100.00
57050;BME280;42935;50.966;16.992;2022-12-10T00:45:09;100489.27;;;0.23;100.00
57050;BME280;42935;50.966;16.992;2022-12-10T00:48:29;100509.01;;;0.24;100.00
57050;BME280;42935;50.966;16.992;2022-12-10T00:51:43;100498.33;;;0.18;100.00
57050;BME280;42935;50.966;16.992;2022-12-10T00:55:02;100498.85;;;0.27;100.00
57050;BME280;42935;50.966;16.992;2022-12-10T00:58:15;100512.52;;;0.28;100.00
57050;BME280;42935;50.966;16.992;2022-12-10T01:01:33;100509.17;;;0.31;100.00
57050;BME280;42935;50.966;16.992;2022-12-10T01:04:53;100518.43;;;0.33;100.00
57050;BME280;42935;50.966;16.992;2022-12-10T01:08:07;100513.25;;;0.28;100.00
57050;BME280;42935;50.966;16.992;2022-12-10T01:11:24;100524.86;;;0.33;100.00
57050;BME280;42935;50.966;16.992;2022-12-10T01:14:38;100517.20;;;0.24;100.00
57050;BME280;42935;50.966;16.992;2022-12-10T01:17:47;100513.23;;;0.25;100.00
57050;BME280;42935;50.966;16.992;2022-12-10T01:21:04;100511.42;;;0.16;100.00
57050;BME280;42935;50.966;16.992;2022-12-10T01:24:26;100520.72;;;0.19;100.00
57050;BME280;42935;50.966;16.992;2022-12-10T01:27:43;100532.74;;;0.30;100.00
57050;BME280;42935;50.966;16.992;2022-12-10T01:31:07;100528.29;;;0.26;100.00
57050;BME280;42935;50.966;16.992;2022-12-10T01:34:26;100519.45;;;0.25;100.00
57050;BME280;42935;50.966;16.992;2022-12-10T01:37:40;100520.34;;;0.25;100.00
57050;BME280;42935;50.966;16.992;2022-12-10T01:41:00;100513.03;;;0.27;100.00
57050;BME280;42935;50.966;16.992;2022-12-10T01:47:36;100523.44;;;0.32;100.00
57050;BME280;42935;50.966;16.992;2022-12-10T01:50:54;100526.73;;;0.29;100.00
57050;BME280;42935;50.966;16.992;2022-12-10T01:54:13;100527.09;;;0.30;100.00
57050;BME280;42935;50.966;16.992;2022-12-10T01:57:26;100525.52;;;0.26;100.00
57050;BME280;42935;50.966;16.992;2022-12-10T02:11:16;100522.17;;;0.24;100.00
57050;BME280;42935;50.966;16.992;2022-12-10T02:18:09;100512.03;;;0.35;100.00
57050;BME280;42935;50.966;16.992;2022-12-10T02:21:28;100519.82;;;0.16;100.00
57050;BME280;42935;50.966;16.992;2022-12-10T02:24:44;100523.20;;;0.18;100.00
57050;BME280;42935;50.966;16.992;2022-12-10T02:31:33;100533.73;;;0.32;100.00
57050;BME280;42935;50.966;16.992;2022-12-10T02:34:57;100515.03;;;0.13;100.00
57050;BME280;42935;50.966;16.992;2022-12-10T02:38:28;100532.25;;;0.30;100.00
57050;BME280;42935;50.966;16.992;2022-12-10T02:41:47;100535.23;;;0.24;100.00
57050;BME280;42935;50.966;16.992;2022-12-10T02:45:05;100545.68;;;0.27;100.00
57050;BME280;42935;50.966;16.992;2022-12-10T02:48:16;100535.53;;;0.22;100.00
57050;BME280;42935;50.966;16.992;2022-12-10T02:51:31;100537.17;;;0.38;100.00
57050;BME280;42935;50.966;16.992;2022-12-10T02:54:46;100540.92;;;0.39;100.00
57050;BME280;42935;50.966;16.992;2022-12-10T02:58:12;100528.53;;;0.27;100.00
57050;BME280;42935;50.966;16.992;2022-12-10T03:04:59;100531.23;;;0.30;100.00
57050;BME280;42935;50.966;16.992;2022-12-10T03:11:45;100546.10;;;0.32;100.00
57050;BME280;42935;50.966;16.992;2022-12-10T03:15:00;100546.56;;;0.36;100.00
57050;BME280;42935;50.966;16.992;2022-12-10T03:18:21;100547.51;;;0.26;100.00
57050;BME280;42935;50.966;16.992;2022-12-10T03:21:38;100540.54;;;0.22;100.00
57050;BME280;42935;50.966;16.992;2022-12-10T03:24:55;100548.77;;;0.39;100.00
57050;BME280;42935;50.966;16.992;2022-12-10T03:28:08;100542.88;;;0.19;100.00
57050;BME280;42935;50.966;16.992;2022-12-10T03:31:22;100544.95;;;0.29;100.00
57050;BME280;42935;50.966;16.992;2022-12-10T03:34:42;100529.48;;;0.23;100.00
57050;BME280;42935;50.966;16.992;2022-12-10T03:37:58;100541.75;;;0.34;100.00
57050;BME280;42935;50.966;16.992;2022-12-10T03:41:39;100550.50;;;0.34;100.00
57050;BME280;42935;50.966;16.992;2022-12-10T03:44:52;100542.77;;;0.31;100.00
57050;BME280;42935;50.966;16.992;2022-12-10T03:48:09;100549.65;;;0.32;100.00
57050;BME280;42935;50.966;16.992;2022-12-10T03:51:57;100541.01;;;0.13;100.00
57050;BME280;42935;50.966;16.992;2022-12-10T03:55:11;100556.30;;;0.21;100.00
57050;BME280;42935;50.966;16.992;2022-12-10T03:58:24;100560.05;;;0.18;100.00
57050;BME280;42935;50.966;16.992;2022-12-10T04:01:40;100560.98;;;0.07;100.00
57050;BME280;42935;50.966;16.992;2022-12-10T04:04:59;100563.97;;;0.09;100.00
57050;BME280;42935;50.966;16.992;2022-12-10T04:08:08;100559.98;;;0.08;100.00
57050;BME280;42935;50.966;16.992;2022-12-10T04:11:57;100560.19;;;-0.00;100.00
57050;BME280;42935;50.966;16.992;2022-12-10T04:15:14;100573.46;;;0.12;100.00
57050;BME280;42935;50.966;16.992;2022-12-10T04:18:39;100577.03;;;0.08;100.00
57050;BME280;42935;50.966;16.992;2022-12-10T04:21:53;100573.23;;;0.19;100.00
57050;BME280;42935;50.966;16.992;2022-12-10T04:25:17;100573.57;;;0.13;100.00
57050;BME280;42935;50.966;16.992;2022-12-10T04:28:40;100573.75;;;0.14;100.00
57050;BME280;42935;50.966;16.992;2022-12-10T04:31:50;100579.90;;;0.27;100.00
57050;BME280;42935;50.966;16.992;2022-12-10T04:35:03;100582.72;;;0.15;100.00
57050;BME280;42935;50.966;16.992;2022-12-10T04:38:12;100582.66;;;0.14;100.00
57050;BME280;42935;50.966;16.992;2022-12-10T04:41:30;100584.30;;;0.07;100.00
57050;BME280;42935;50.966;16.992;2022-12-10T04:44:47;100583.47;;;0.10;100.00
57050;BME280;42935;50.966;16.992;2022-12-10T04:47:58;100588.55;;;0.14;100.00
57050;BME280;42935;50.966;16.992;2022-12-10T04:51:09;100590.61;;;0.20;100.00
57050;BME280;42935;50.966;16.992;2022-12-10T04:54:20;100589.46;;;0.12;100.00
57050;BME280;42935;50.966;16.992;2022-12-10T04:57:32;100580.98;;;0.18;100.00
57050;BME280;42935;50.966;16.992;2022-12-10T05:00:41;100589.37;;;0.29;100.00
57050;BME280;42935;50.966;16.992;2022-12-10T05:04:01;100584.41;;;0.20;100.00
57050;BME280;42935;50.966;16.992;2022-12-10T05:07:15;100594.03;;;0.17;100.00
57050;BME280;42935;50.966;16.992;2022-12-10T05:10:28;100596.93;;;0.22;100.00
57050;BME280;42935;50.966;16.992;2022-12-10T05:13:42;100596.75;;;0.17;100.00
57050;BME280;42935;50.966;16.992;2022-12-10T05:16:57;100594.16;;;0.21;100.00
57050;BME280;42935;50.966;16.992;2022-12-10T05:20:10;100595.02;;;0.19;100.00
57050;BME280;42935;50.966;16.992;2022-12-10T05:23:25;100585.61;;;0.09;100.00
57050;BME280;42935;50.966;16.992;2022-12-10T05:26:41;100600.91;;;0.12;100.00
57050;BME280;42935;50.966;16.992;2022-12-10T05:29:56;100601.43;;;0.08;100.00
57050;BME280;42935;50.966;16.992;2022-12-10T05:33:06;100599.07;;;0.03;100.00
57050;BME280;42935;50.966;16.992;2022-12-10T05:36:26;100610.17;;;-0.00;100.00
57050;BME280;42935;50.966;16.992;2022-12-10T05:39:44;100612.05;;;-0.01;100.00
57050;BME280;42935;50.966;16.992;2022-12-10T05:42:58;100610.37;;;0.05;100.00
57050;BME280;42935;50.966;16.992;2022-12-10T05:46:18;100603.80;;;-0.08;100.00
57050;BME280;42935;50.966;16.992;2022-12-10T05:49:32;100597.02;;;-0.14;100.00
57050;BME280;42935;50.966;16.992;2022-12-10T05:52:50;100601.34;;;-0.12;100.00
57050;BME280;42935;50.966;16.992;2022-12-10T05:56:16;100602.02;;;-0.07;100.00
57050;BME280;42935;50.966;16.992;2022-12-10T05:59:38;100612.57;;;-0.08;100.00
57050;BME280;42935;50.966;16.992;2022-12-10T06:02:47;100614.59;;;0.00;100.00
57050;BME280;42935;50.966;16.992;2022-12-10T06:05:59;100601.87;;;-0.01;100.00
57050;BME280;42935;50.966;16.992;2022-12-10T06:09:12;100605.20;;;0.03;100.00
57050;BME280;42935;50.966;16.992;2022-12-10T06:12:29;100596.17;;;-0.08;100.00
57050;BME280;42935;50.966;16.992;2022-12-10T06:15:43;100604.16;;;-0.06;100.00
57050;BME280;42935;50.966;16.992;2022-12-10T06:19:01;100591.56;;;-0.04;100.00
57050;BME280;42935;50.966;16.992;2022-12-10T06:22:18;100590.88;;;-0.04;100.00
57050;BME280;42935;50.966;16.992;2022-12-10T06:25:38;100609.97;;;-0.10;100.00
57050;BME280;42935;50.966;16.992;2022-12-10T06:28:52;100613.77;;;-0.11;100.00
57050;BME280;42935;50.966;16.992;2022-12-10T06:32:11;100604.02;;;-0.15;100.00
57050;BME280;42935;50.966;16.992;2022-12-10T06:35:20;100609.91;;;-0.13;100.00
57050;BME280;42935;50.966;16.992;2022-12-10T06:38:38;100607.77;;;-0.18;100.00
57050;BME280;42935;50.966;16.992;2022-12-10T06:41:52;100583.27;;;-0.30;100.00
57050;BME280;42935;50.966;16.992;2022-12-10T06:45:05;100603.30;;;-0.24;100.00
57050;BME280;42935;50.966;16.992;2022-12-10T06:48:17;100618.80;;;-0.20;100.00
57050;BME280;42935;50.966;16.992;2022-12-10T06:51:35;100626.36;;;-0.12;100.00
57050;BME280;42935;50.966;16.992;2022-12-10T06:54:55;100631.09;;;-0.23;100.00
57050;BME280;42935;50.966;16.992;2022-12-10T06:58:13;100626.86;;;-0.19;100.00
57050;BME280;42935;50.966;16.992;2022-12-10T07:01:26;100636.64;;;-0.04;100.00
57050;BME280;42935;50.966;16.992;2022-12-10T07:04:39;100641.68;;;-0.11;100.00
57050;BME280;42935;50.966;16.992;2022-12-10T07:07:54;100644.75;;;-0.19;100.00
57050;BME280;42935;50.966;16.992;2022-12-10T07:11:05;100636.98;;;-0.26;100.00
57050;BME280;42935;50.966;16.992;2022-12-10T07:14:23;100643.87;;;-0.31;100.00
57050;BME280;42935;50.966;16.992;2022-12-10T07:17:38;100636.04;;;-0.38;100.00
57050;BME280;42935;50.966;16.992;2022-12-10T07:20:50;100645.13;;;-0.42;100.00
57050;BME280;42935;50.966;16.992;2022-12-10T07:24:07;100640.41;;;-0.34;100.00
57050;BME280;42935;50.966;16.992;2022-12-10T07:27:19;100639.12;;;-0.32;100.00
57050;BME280;42935;50.966;16.992;2022-12-10T07:30:29;100635.47;;;-0.37;100.00
57050;BME280;42935;50.966;16.992;2022-12-10T07:33:43;100633.62;;;-0.32;100.00
57050;BME280;42935;50.966;16.992;2022-12-10T07:37:28;100595.84;;;-0.54;100.00
57050;BME280;42935;50.966;16.992;2022-12-10T07:40:42;100631.62;;;-0.25;100.00
57050;BME280;42935;50.966;16.992;2022-12-10T07:43:56;100643.77;;;-0.27;100.00
57050;BME280;42935;50.966;16.992;2022-12-10T07:47:09;100642.99;;;-0.32;100.00
57050;BME280;42935;50.966;16.992;2022-12-10T07:50:29;100667.33;;;-0.29;100.00
57050;BME280;42935;50.966;16.992;2022-12-10T07:53:38;100673.34;;;-0.30;100.00
57050;BME280;42935;50.966;16.992;2022-12-10T07:56:51;100670.16;;;-0.26;100.00
57050;BME280;42935;50.966;16.992;2022-12-10T08:00:04;100670.41;;;-0.34;100.00
57050;BME280;42935;50.966;16.992;2022-12-10T08:03:22;100673.12;;;-0.35;100.00
57050;BME280;42935;50.966;16.992;2022-12-10T08:06:32;100666.64;;;-0.36;100.00
57050;BME280;42935;50.966;16.992;2022-12-10T08:10:14;100680.50;;;-0.26;100.00
57050;BME280;42935;50.966;16.992;2022-12-10T08:13:31;100669.98;;;-0.23;100.00
57050;BME280;42935;50.966;16.992;2022-12-10T08:16:41;100676.92;;;-0.00;100.00
57050;BME280;42935;50.966;16.992;2022-12-10T08:20:29;100675.26;;;-0.30;100.00
57050;BME280;42935;50.966;16.992;2022-12-10T08:23:46;100648.02;;;-0.50;100.00
57050;BME280;42935;50.966;16.992;2022-12-10T08:27:02;100674.70;;;-0.31;100.00
57050;BME280;42935;50.966;16.992;2022-12-10T08:30:19;100691.64;;;-0.21;100.00
57050;BME280;42935;50.966;16.992;2022-12-10T08:33:27;100693.48;;;-0.07;100.00
57050;BME280;42935;50.966;16.992;2022-12-10T08:36:43;100690.48;;;-0.14;100.00
57050;BME280;42935;50.966;16.992;2022-12-10T08:39:57;100691.31;;;-0.21;100.00
57050;BME280;42935;50.966;16.992;2022-12-10T08:43:15;100691.96;;;-0.16;100.00
57050;BME280;42935;50.966;16.992;2022-12-10T08:46:23;100690.25;;;-0.25;100.00
57050;BME280;42935;50.966;16.992;2022-12-10T08:49:39;100693.09;;;-0.13;100.00
57050;BME280;42935;50.966;16.992;2022-12-10T08:52:54;100691.84;;;-0.16;100.00
57050;BME280;42935;50.966;16.992;2022-12-10T08:56:12;100689.03;;;-0.15;100.00
57050;BME280;42935;50.966;16.992;2022-12-10T08:59:23;100685.10;;;-0.09;100.00
57050;BME280;42935;50.966;16.992;2022-12-10T09:02:33;100693.12;;;-0.05;100.00
57050;BME280;42935;50.966;16.992;2022-12-10T09:05:51;100695.30;;;-0.09;100.00
57050;BME280;42935;50.966;16.992;2022-12-10T09:09:08;100682.45;;;-0.13;100.00
57050;BME280;42935;50.966;16.992;2022-12-10T09:12:22;100693.09;;;-0.00;100.00
57050;BME280;42935;50.966;16.992;2022-12-10T09:15:36;100690.82;;;0.01;100.00
57050;BME280;42935;50.966;16.992;2022-12-10T09:18:46;100688.92;;;-0.16;100.00
57050;BME280;42935;50.966;16.992;2022-12-10T09:21:56;100692.61;;;-0.26;100.00
57050;BME280;42935;50.966;16.992;2022-12-10T09:25:10;100694.56;;;-0.27;100.00
57050;BME280;42935;50.966;16.992;2022-12-10T09:28:37;100699.01;;;-0.21;100.00
57050;BME280;42935;50.966;16.992;2022-12-10T09:31:52;100697.80;;;-0.14;100.00
57050;BME280;42935;50.966;16.992;2022-12-10T09:35:05;100699.94;;;-0.06;100.00
57050;BME280;42935;50.966;16.992;2022-12-10T09:38:20;100701.68;;;-0.11;100.00
57050;BME280;42935;50.966;16.992;2022-12-10T09:52:05;100654.13;;;-0.11;100.00
57050;BME280;42935;50.966;16.992;2022-12-10T09:55:21;100648.48;;;-0.01;100.00
57050;BME280;42935;50.966;16.992;2022-12-10T10:02:32;100658.74;;;0.22;100.00
57050;BME280;42935;50.966;16.992;2022-12-10T10:05:47;100657.23;;;0.10;100.00
57050;BME280;42935;50.966;16.992;2022-12-10T10:08:59;100655.47;;;0.09;100.00
57050;BME280;42935;50.966;16.992;2022-12-10T10:12:16;100646.53;;;0.12;100.00
57050;BME280;42935;50.966;16.992;2022-12-10T10:15:31;100651.82;;;0.22;100.00
57050;BME280;42935;50.966;16.992;2022-12-10T10:18:56;100645.30;;;0.26;100.00
57050;BME280;42935;50.966;16.992;2022-12-10T10:22:11;100612.60;;;0.08;100.00
57050;BME280;42935;50.966;16.992;2022-12-10T10:25:25;100644.34;;;0.20;100.00
57050;BME280;42935;50.966;16.992;2022-12-10T10:29:08;100632.23;;;0.20;100.00
57050;BME280;42935;50.966;16.992;2022-12-10T10:35:57;100624.84;;;0.39;100.00
57050;BME280;42935;50.966;16.992;2022-12-10T10:42:43;100627.55;;;0.59;100.00
57050;BME280;42935;50.966;16.992;2022-12-10T10:46:04;100620.02;;;0.52;100.00
57050;BME280;42935;50.966;16.992;2022-12-10T10:49:27;100631.73;;;0.51;100.00
57050;BME280;42935;50.966;16.992;2022-12-10T10:52:41;100627.45;;;0.50;100.00
57050;BME280;42935;50.966;16.992;2022-12-10T10:55:58;100634.13;;;0.52;100.00
57050;BME280;42935;50.966;16.992;2022-12-10T10:59:28;100631.55;;;0.41;100.00
57050;BME280;42935;50.966;16.992;2022-12-10T11:02:41;100640.97;;;0.41;100.00
57050;BME280;42935;50.966;16.992;2022-12-10T11:05:56;100642.38;;;0.37;100.00
57050;BME280;42935;50.966;16.992;2022-12-10T11:09:05;100638.50;;;0.35;100.00
57050;BME280;42935;50.966;16.992;2022-12-10T11:16:18;100659.91;;;0.53;100.00
57050;BME280;42935;50.966;16.992;2022-12-10T11:19:29;100654.81;;;0.51;100.00
57050;BME280;42935;50.966;16.992;2022-12-10T11:22:53;100668.21;;;0.52;100.00
57050;BME280;42935;50.966;16.992;2022-12-10T11:43:22;100659.95;;;0.72;100.00
57050;BME280;42935;50.966;16.992;2022-12-10T11:50:12;100657.70;;;0.77;100.00
57050;BME280;42935;50.966;16.992;2022-12-10T12:00:42;100662.43;;;0.53;100.00
57050;BME280;42935;50.966;16.992;2022-12-10T12:17:38;100652.45;;;0.59;100.00
57050;BME280;42935;50.966;16.992;2022-12-10T12:21:01;100666.53;;;0.37;100.00
57050;BME280;42935;50.966;16.992;2022-12-10T12:27:47;100652.23;;;0.54;100.00
57050;BME280;42935;50.966;16.992;2022-12-10T12:31:40;100648.30;;;0.61;100.00
57050;BME280;42935;50.966;16.992;2022-12-10T12:35:42;100647.98;;;0.63;100.00
57050;BME280;42935;50.966;16.992;2022-12-10T12:43:01;100654.66;;;0.66;100.00
57050;BME280;42935;50.966;16.992;2022-12-10T12:49:38;100647.45;;;0.78;100.00
57050;BME280;42935;50.966;16.992;2022-12-10T12:53:24;100632.79;;;0.61;100.00
57050;BME280;42935;50.966;16.992;2022-12-10T13:00:04;100625.95;;;0.65;100.00
57050;BME280;42935;50.966;16.992;2022-12-10T13:03:27;100624.30;;;0.44;100.00
57050;BME280;42935;50.966;16.992;2022-12-10T13:14:02;100631.48;;;0.20;100.00
57050;BME280;42935;50.966;16.992;2022-12-10T13:17:24;100629.42;;;0.19;100.00
57050;BME280;42935;50.966;16.992;2022-12-10T13:23:49;100645.01;;;0.18;100.00
57050;BME280;42935;50.966;16.992;2022-12-10T13:27:34;100646.46;;;0.24;100.00
57050;BME280;42935;50.966;16.992;2022-12-10T13:34:29;100635.07;;;0.08;100.00
57050;BME280;42935;50.966;16.992;2022-12-10T13:41:06;100641.28;;;0.21;100.00
57050;BME280;42935;50.966;16.992;2022-12-10T13:58:59;100653.03;;;0.42;100.00
57050;BME280;42935;50.966;16.992;2022-12-10T14:09:15;100664.26;;;0.30;100.00
57050;BME280;42935;50.966;16.992;2022-12-10T14:12:33;100670.71;;;0.36;100.00
57050;BME280;42935;50.966;16.992;2022-12-10T14:19:13;100676.84;;;0.32;100.00
57050;BME280;42935;50.966;16.992;2022-12-10T14:22:44;100676.09;;;0.21;100.00
57050;BME280;42935;50.966;16.992;2022-12-10T14:25:56;100679.86;;;0.24;100.00
57050;BME280;42935;50.966;16.992;2022-12-10T14:29:20;100689.01;;;0.26;100.00
57050;BME280;42935;50.966;16.992;2022-12-10T14:33:16;100682.02;;;0.14;100.00
57050;BME280;42935;50.966;16.992;2022-12-10T14:36:34;100691.30;;;0.23;100.00
57050;BME280;42935;50.966;16.992;2022-12-10T14:39:54;100697.67;;;0.19;100.00
57050;BME280;42935;50.966;16.992;2022-12-10T14:43:42;100696.55;;;0.14;100.00
57050;BME280;42935;50.966;16.992;2022-12-10T14:50:17;100676.04;;;-0.00;100.00
57050;BME280;42935;50.966;16.992;2022-12-10T14:53:36;100708.45;;;0.11;100.00
57050;BME280;42935;50.966;16.992;2022-12-10T14:56:53;100665.17;;;-0.13;100.00
57050;BME280;42935;50.966;16.992;2022-12-10T15:00:18;100712.85;;;0.09;100.00
57050;BME280;42935;50.966;16.992;2022-12-10T15:03:44;100719.44;;;0.24;100.00
57050;BME280;42935;50.966;16.992;2022-12-10T15:07:00;100698.45;;;0.15;100.00
57050;BME280;42935;50.966;16.992;2022-12-10T15:10:38;100714.55;;;0.23;100.00
57050;BME280;42935;50.966;16.992;2022-12-10T15:13:53;100716.05;;;0.37;100.00
57050;BME280;42935;50.966;16.992;2022-12-10T15:20:47;100716.41;;;0.43;100.00
57050;BME280;42935;50.966;16.992;2022-12-10T15:24:09;100705.05;;;0.36;100.00
57050;BME280;42935;50.966;16.992;2022-12-10T15:27:30;100710.63;;;0.36;100.00
57050;BME280;42935;50.966;16.992;2022-12-10T15:30:54;100713.61;;;0.21;100.00
57050;BME280;42935;50.966;16.992;2022-12-10T15:34:11;100718.54;;;0.23;100.00
57050;BME280;42935;50.966;16.992;2022-12-10T15:37:38;100723.38;;;0.19;100.00
57050;BME280;42935;50.966;16.992;2022-12-10T15:40:46;100723.66;;;0.33;100.00
57050;BME280;42935;50.966;16.992;2022-12-10T15:47:32;100726.95;;;0.31;100.00
57050;BME280;42935;50.966;16.992;2022-12-10T15:50:53;100728.14;;;0.28;100.00
57050;BME280;42935;50.966;16.992;2022-12-10T15:57:29;100731.79;;;0.31;100.00
57050;BME280;42935;50.966;16.992;2022-12-10T16:00:48;100727.12;;;0.37;100.00
57050;BME280;42935;50.966;16.992;2022-12-10T16:04:00;100725.33;;;0.23;100.00
57050;BME280;42935;50.966;16.992;2022-12-10T16:07:18;100721.33;;;0.21;100.00
57050;BME280;42935;50.966;16.992;2022-12-10T16:10:33;100720.17;;;0.26;100.00
57050;BME280;42935;50.966;16.992;2022-12-10T16:13:49;100724.08;;;0.30;100.00
57050;BME280;42935;50.966;16.992;2022-12-10T16:17:01;100720.05;;;0.25;100.00
57050;BME280;42935;50.966;16.992;2022-12-10T16:20:28;100722.45;;;0.14;100.00
57050;BME280;42935;50.966;16.992;2022-12-10T16:23:39;100715.73;;;0.20;100.00
57050;BME280;42935;50.966;16.992;2022-12-10T16:27:00;100705.81;;;0.24;100.00
57050;BME280;42935;50.966;16.992;2022-12-10T16:33:46;100698.69;;;0.30;100.00
57050;BME280;42935;50.966;16.992;2022-12-10T16:37:09;100699.66;;;0.22;100.00
57050;BME280;42935;50.966;16.992;2022-12-10T16:40:22;100697.70;;;0.07;100.00
57050;BME280;42935;50.966;16.992;2022-12-10T16:43:39;100679.62;;;0.01;100.00
57050;BME280;42935;50.966;16.992;2022-12-10T16:46:50;100696.65;;;0.05;100.00
57050;BME280;42935;50.966;16.992;2022-12-10T16:50:04;100695.39;;;-0.02;100.00
57050;BME280;42935;50.966;16.992;2022-12-10T16:53:21;100698.04;;;-0.05;100.00
57050;BME280;42935;50.966;16.992;2022-12-10T16:56:35;100703.48;;;-0.08;100.00
57050;BME280;42935;50.966;16.992;2022-12-10T16:59:56;100706.80;;;-0.04;100.00
57050;BME280;42935;50.966;16.992;2022-12-10T17:03:15;100705.37;;;-0.10;100.00
57050;BME280;42935;50.966;16.992;2022-12-10T17:06:34;100696.95;;;-0.19;100.00
57050;BME280;42935;50.966;16.992;2022-12-10T17:09:45;100709.27;;;0.03;100.00
57050;BME280;42935;50.966;16.992;2022-12-10T17:12:55;100708.52;;;0.02;100.00
57050;BME280;42935;50.966;16.992;2022-12-10T17:16:13;100710.10;;;-0.13;100.00
57050;BME280;42935;50.966;16.992;2022-12-10T17:19:33;100699.47;;;-0.14;100.00
57050;BME280;42935;50.966;16.992;2022-12-10T17:22:51;100706.06;;;-0.09;100.00
57050;BME280;42935;50.966;16.992;2022-12-10T17:26:04;100724.23;;;-0.12;100.00
57050;BME280;42935;50.966;16.992;2022-12-10T17:29:30;100728.05;;;-0.01;100.00
57050;BME280;42935;50.966;16.992;2022-12-10T17:32:43;100728.13;;;-0.02;100.00
57050;BME280;42935;50.966;16.992;2022-12-10T17:36:01;100680.80;;;-0.26;100.00
57050;BME280;42935;50.966;16.992;2022-12-10T17:39:23;100716.41;;;0.06;100.00
57050;BME280;42935;50.966;16.992;2022-12-10T17:42:45;100738.74;;;0.14;100.00
57050;BME280;42935;50.966;16.992;2022-12-10T17:46:01;100740.35;;;-0.05;100.00
57050;BME280;42935;50.966;16.992;2022-12-10T17:49:16;100742.16;;;0.01;100.00
57050;BME280;42935;50.966;16.992;2022-12-10T17:52:30;100695.02;;;-0.09;100.00
57050;BME280;42935;50.966;16.992;2022-12-10T17:59:13;100688.95;;;-0.32;100.00
57050;BME280;42935;50.966;16.992;2022-12-10T18:02:27;100740.69;;;0.14;100.00
57050;BME280;42935;50.966;16.992;2022-12-10T18:05:40;100745.29;;;0.07;100.00
57050;BME280;42935;50.966;16.992;2022-12-10T18:08:58;100733.58;;;0.00;100.00
57050;BME280;42935;50.966;16.992;2022-12-10T18:12:17;100737.93;;;-0.14;100.00
57050;BME280;42935;50.966;16.992;2022-12-10T18:15:40;100729.65;;;-0.13;100.00
57050;BME280;42935;50.966;16.992;2022-12-10T18:19:00;100736.38;;;-0.05;100.00
57050;BME280;42935;50.966;16.992;2022-12-10T18:22:18;100708.95;;;-0.17;100.00
57050;BME280;42935;50.966;16.992;2022-12-10T18:25:33;100734.23;;;-0.03;100.00
57050;BME280;42935;50.966;16.992;2022-12-10T18:28:58;100722.76;;;-0.24;100.00
57050;BME280;42935;50.966;16.992;2022-12-10T18:32:17;100730.50;;;-0.17;100.00
57050;BME280;42935;50.966;16.992;2022-12-10T18:35:31;100728.28;;;-0.27;100.00
57050;BME280;42935;50.966;16.992;2022-12-10T18:38:35;100721.60;;;-0.34;100.00
57050;BME280;42935;50.966;16.992;2022-12-10T18:41:46;100714.15;;;-0.40;100.00
57050;BME280;42935;50.966;16.992;2022-12-10T18:45:00;100709.04;;;-0.31;100.00
57050;BME280;42935;50.966;16.992;2022-12-10T18:48:10;100707.33;;;-0.33;100.00
57050;BME280;42935;50.966;16.992;2022-12-10T18:51:21;100704.00;;;-0.37;100.00
57050;BME280;42935;50.966;16.992;2022-12-10T18:54:34;100708.93;;;-0.33;100.00
57050;BME280;42935;50.966;16.992;2022-12-10T18:57:47;100722.78;;;-0.27;100.00
57050;BME280;42935;50.966;16.992;2022-12-10T19:01:07;100721.77;;;-0.28;100.00
57050;BME280;42935;50.966;16.992;2022-12-10T19:04:15;100713.31;;;-0.30;100.00
57050;BME280;42935;50.966;16.992;2022-12-10T19:07:32;100717.83;;;-0.23;100.00
57050;BME280;42935;50.966;16.992;2022-12-10T19:10:52;100721.81;;;-0.23;100.00
57050;BME280;42935;50.966;16.992;2022-12-10T19:14:07;100719.58;;;-0.14;100.00
57050;BME280;42935;50.966;16.992;2022-12-10T19:17:19;100721.01;;;-0.18;100.00
57050;BME280;42935;50.966;16.992;2022-12-10T19:20:30;100713.05;;;-0.30;100.00
57050;BME280;42935;50.966;16.992;2022-12-10T19:23:44;100704.56;;;-0.34;100.00
57050;BME280;42935;50.966;16.992;2022-12-10T19:26:57;100713.45;;;-0.31;100.00
57050;BME280;42935;50.966;16.992;2022-12-10T19:30:23;100715.85;;;-0.32;100.00
57050;BME280;42935;50.966;16.992;2022-12-10T19:33:35;100731.41;;;-0.12;100.00
57050;BME280;42935;50.966;16.992;2022-12-10T19:36:46;100726.60;;;-0.10;100.00
57050;BME280;42935;50.966;16.992;2022-12-10T19:40:34;100729.63;;;-0.21;100.00
57050;BME280;42935;50.966;16.992;2022-12-10T19:43:52;100726.77;;;-0.13;100.00
57050;BME280;42935;50.966;16.992;2022-12-10T19:47:14;100737.61;;;-0.10;100.00